Time;durP1;ratioP1;P1;durP2;ratioP2;P2;SDS_P1;SDS_P2;PMS_P1;PMS_P2;Temp;Humidity;BMP_temperature;BMP_pressure;BME280_temperature;BME280_humidity;BME280_pressure;Samples;Min_cycle;Max_cycle;Signal;HPM_P1;HPM_P2
2022/07/16 00:02:34;;;;;;;18.90;17.20;;;20.20;99.90;;;;;;6201923;28;20230;-66
2022/07/16 00:05:37;;;;;;;21.23;19.43;;;20.20;99.90;;;;;;6201814;28;20245;-63
2022/07/16 00:08:41;;;;;;;21.47;19.67;;;20.20;99.90;;;;;;6201347;28;20237;-63
2022/07/16 00:11:44;;;;;;;19.27;17.67;;;20.20;99.90;;;;;;6201387;28;20236;-63
2022/07/16 00:14:48;;;;;;;20.40;18.73;;;20.20;99.90;;;;;;6201601;28;20236;-64
2022/07/16 00:19:15;;;;;;;18.33;16.83;;;20.20;99.90;;;;;;6201459;28;20308;-63
2022/07/16 00:21:14;;;;;;;18.20;16.50;;;20.10;99.90;;;;;;6202090;28;20230;-62
2022/07/16 00:24:18;;;;;;;19.10;17.30;;;20.20;99.90;;;;;;6203005;28;20655;-62
2022/07/16 00:27:21;;;;;;;18.70;17.10;;;20.00;99.90;;;;;;6202119;28;20265;-62
2022/07/16 00:30:26;;;;;;;18.90;17.40;;;20.00;99.90;;;;;;6201805;28;20268;-63
2022/07/16 00:33:29;;;;;;;19.50;17.90;;;20.00;99.90;;;;;;6201230;28;20652;-64
2022/07/16 00:36:32;;;;;;;17.43;16.03;;;19.90;99.90;;;;;;6201706;28;20236;-65
2022/07/16 00:39:36;;;;;;;19.30;17.80;;;19.90;99.90;;;;;;6201368;28;20276;-66
2022/07/16 00:42:39;;;;;;;18.03;16.50;;;19.90;99.90;;;;;;6186977;28;20229;-66
2022/07/16 00:45:43;;;;;;;20.27;18.63;;;19.90;99.90;;;;;;6201164;28;20225;-66
2022/07/16 00:48:47;;;;;;;21.10;19.00;;;19.90;99.90;;;;;;6200903;28;20225;-66
2022/07/16 00:51:52;;;;;;;19.07;17.37;;;19.90;99.90;;;;;;6201067;28;20345;-65
2022/07/16 00:54:55;;;;;;;20.10;18.30;;;19.90;99.90;;;;;;6201192;28;20226;-66
2022/07/16 00:57:59;;;;;;;20.43;18.53;;;19.90;99.90;;;;;;6200607;28;20229;-65
2022/07/16 01:01:04;;;;;;;18.63;16.97;;;19.90;99.90;;;;;;6200703;28;20230;-65
2022/07/16 01:04:10;;;;;;;17.40;15.90;;;19.90;99.90;;;;;;6200746;28;20720;-65
2022/07/16 01:07:13;;;;;;;18.60;17.00;;;19.90;99.90;;;;;;6200824;28;20252;-65
2022/07/16 01:10:19;;;;;;;18.27;16.87;;;19.80;99.90;;;;;;6200315;28;20560;-65
2022/07/16 01:13:32;;;;;;;19.50;17.80;;;19.90;99.90;;;;;;6201011;28;20694;-64
2022/07/16 01:16:37;;;;;;;19.67;17.97;;;19.80;99.90;;;;;;6201289;28;20667;-64
2022/07/16 01:19:40;;;;;;;17.90;16.30;;;19.90;99.90;;;;;;6202034;28;20256;-64
2022/07/16 01:22:44;;;;;;;18.27;16.83;;;19.80;99.90;;;;;;6201926;28;20248;-64
2022/07/16 01:25:49;;;;;;;20.63;18.83;;;19.80;99.90;;;;;;6200829;28;20233;-63
2022/07/16 01:28:52;;;;;;;18.20;16.73;;;19.80;99.90;;;;;;6201679;28;20249;-63
2022/07/16 01:31:56;;;;;;;18.23;16.80;;;19.80;99.90;;;;;;6205034;28;20236;-63
2022/07/16 01:34:59;;;;;;;17.77;16.27;;;19.80;99.90;;;;;;6205102;28;20540;-63
2022/07/16 01:38:02;;;;;;;20.73;19.00;;;19.80;99.90;;;;;;6205297;28;20272;-63
2022/07/16 01:41:07;;;;;;;17.40;15.90;;;19.80;99.90;;;;;;6204993;28;20559;-63
2022/07/16 01:44:10;;;;;;;18.40;16.90;;;19.80;99.90;;;;;;6204911;28;20268;-63
2022/07/16 01:47:14;;;;;;;18.20;16.70;;;19.90;99.90;;;;;;6195985;28;20263;-63
2022/07/16 01:50:17;;;;;;;18.90;17.30;;;19.90;99.90;;;;;;6204464;28;20329;-63
2022/07/16 01:53:21;;;;;;;17.83;16.33;;;19.90;99.90;;;;;;6204916;28;20226;-63
2022/07/16 01:56:25;;;;;;;17.70;16.23;;;19.90;99.90;;;;;;6204554;28;20235;-63
2022/07/16 01:59:28;;;;;;;18.93;16.83;;;20.00;99.90;;;;;;6204248;28;20249;-65
2022/07/16 02:02:32;;;;;;;17.43;15.97;;;19.90;99.90;;;;;;6204506;28;20229;-63
2022/07/16 02:05:35;;;;;;;19.00;17.43;;;20.00;99.90;;;;;;6204668;28;20229;-63
2022/07/16 02:08:38;;;;;;;18.80;17.30;;;19.90;99.90;;;;;;6204805;28;20238;-64
2022/07/16 02:11:43;;;;;;;20.70;18.90;;;19.90;99.90;;;;;;6205685;28;20228;-64
2022/07/16 02:14:46;;;;;;;20.60;18.90;;;19.80;99.90;;;;;;6206229;28;20244;-64
2022/07/16 02:17:49;;;;;;;17.50;16.20;;;19.80;99.90;;;;;;6206046;28;20675;-66
2022/07/16 02:20:53;;;;;;;19.43;17.93;;;19.80;99.90;;;;;;6207199;28;20233;-65
2022/07/16 02:23:56;;;;;;;16.33;15.00;;;19.80;99.90;;;;;;6204233;28;20233;-65
2022/07/16 02:27:01;;;;;;;18.73;17.27;;;19.80;99.90;;;;;;6204096;28;20233;-64
2022/07/16 02:30:04;;;;;;;17.83;16.53;;;19.70;99.90;;;;;;6203710;28;20680;-64
2022/07/16 02:33:09;;;;;;;17.80;16.40;;;19.70;99.90;;;;;;6203938;28;20245;-65
2022/07/16 02:36:12;;;;;;;17.60;16.20;;;19.70;99.90;;;;;;6203979;28;20230;-64
2022/07/16 02:39:15;;;;;;;18.93;17.40;;;19.70;99.90;;;;;;6203712;28;20240;-65
2022/07/16 02:42:20;;;;;;;20.77;18.90;;;19.70;99.90;;;;;;6203909;28;20236;-64
2022/07/16 02:45:23;;;;;;;18.63;17.23;;;19.70;99.90;;;;;;6203627;28;20205;-64
2022/07/16 02:48:26;;;;;;;19.37;17.80;;;19.70;99.90;;;;;;6198657;28;20229;-64
2022/07/16 02:51:29;;;;;;;18.43;16.70;;;19.70;99.90;;;;;;6203560;28;20217;-64
2022/07/16 02:54:32;;;;;;;18.73;17.13;;;19.70;99.90;;;;;;6203915;28;20210;-66
2022/07/16 02:57:37;;;;;;;18.40;16.70;;;19.60;99.90;;;;;;6203527;28;20226;-66
2022/07/16 03:00:40;;;;;;;17.20;15.77;;;19.50;99.90;;;;;;6203258;28;20230;-64
2022/07/16 03:03:43;;;;;;;18.67;17.13;;;19.40;99.90;;;;;;6203313;28;20482;-66
2022/07/16 03:06:46;;;;;;;20.17;18.57;;;19.40;99.90;;;;;;6203185;28;20651;-66
2022/07/16 03:09:50;;;;;;;19.40;17.87;;;19.40;99.90;;;;;;6203007;28;20229;-67
2022/07/16 03:12:55;;;;;;;18.30;16.60;;;19.30;99.90;;;;;;6203266;28;20237;-66
2022/07/16 03:15:58;;;;;;;19.13;17.43;;;19.30;99.90;;;;;;6202911;28;20245;-66
2022/07/16 03:19:01;;;;;;;20.17;18.37;;;19.40;99.90;;;;;;6203121;28;20239;-64
2022/07/16 03:22:04;;;;;;;20.50;18.47;;;19.30;99.90;;;;;;6202255;28;20252;-64
2022/07/16 03:25:08;;;;;;;19.13;17.43;;;19.30;99.90;;;;;;6201952;28;20228;-64
2022/07/16 03:28:12;;;;;;;21.13;19.03;;;19.30;99.90;;;;;;6201499;28;20586;-64
2022/07/16 03:31:17;;;;;;;19.60;17.60;;;19.30;99.90;;;;;;6201617;28;20225;-64
2022/07/16 03:34:20;;;;;;;19.40;17.87;;;19.30;99.90;;;;;;6211454;28;20236;-64
2022/07/16 03:37:23;;;;;;;17.43;15.83;;;19.30;99.90;;;;;;6225919;28;20232;-64
2022/07/16 03:40:27;;;;;;;20.93;18.83;;;19.30;99.90;;;;;;6226353;28;20596;-63
2022/07/16 03:43:32;;;;;;;18.67;16.97;;;19.30;99.90;;;;;;6226481;28;20247;-63
2022/07/16 03:46:35;;;;;;;20.10;18.20;;;19.40;99.90;;;;;;6226926;28;20233;-63
2022/07/16 03:49:39;;;;;;;19.67;18.03;;;19.40;99.90;;;;;;6226309;28;20243;-65
2022/07/16 03:52:42;;;;;;;19.57;17.77;;;19.40;99.90;;;;;;6226003;28;20314;-65
2022/07/16 03:55:45;;;;;;;18.93;17.33;;;19.40;99.90;;;;;;6204694;28;20240;-66
2022/07/16 03:58:49;;;;;;;19.60;17.90;;;19.50;99.90;;;;;;6201690;28;20263;-66
2022/07/16 04:01:53;;;;;;;18.53;16.83;;;19.50;99.90;;;;;;6202007;28;20233;-66
2022/07/16 04:04:56;;;;;;;18.33;16.83;;;19.50;99.90;;;;;;6201715;28;20387;-66
2022/07/16 04:08:00;;;;;;;21.40;19.33;;;19.50;99.90;;;;;;6201685;28;20252;-64
2022/07/16 04:11:04;;;;;;;19.30;17.53;;;19.60;99.90;;;;;;6202000;28;20312;-64
2022/07/16 04:14:08;;;;;;;18.53;16.90;;;19.60;99.90;;;;;;6202597;28;20747;-63
2022/07/16 04:17:11;;;;;;;19.33;17.70;;;19.60;99.90;;;;;;6201637;28;20233;-63
2022/07/16 04:20:15;;;;;;;23.30;19.10;;;19.60;99.90;;;;;;6201434;28;20244;-63
2022/07/16 04:23:19;;;;;;;21.27;19.17;;;19.70;99.90;;;;;;6201702;28;20241;-63
2022/07/16 04:26:22;;;;;;;19.87;17.87;;;19.70;99.90;;;;;;6201841;28;20230;-65
2022/07/16 04:29:27;;;;;;;22.80;20.77;;;19.80;99.90;;;;;;6201398;28;20233;-65
2022/07/16 04:32:30;;;;;;;21.30;19.30;;;19.80;99.90;;;;;;6201318;28;20226;-63
2022/07/16 04:35:34;;;;;;;21.87;19.90;;;19.90;99.90;;;;;;6201172;28;20240;-63
2022/07/16 04:38:37;;;;;;;22.70;20.40;;;19.90;99.90;;;;;;6201278;28;20252;-64
2022/07/16 04:41:40;;;;;;;21.30;19.30;;;19.90;99.90;;;;;;6201156;28;20236;-64
2022/07/16 04:44:45;;;;;;;30.47;23.37;;;19.80;99.90;;;;;;6200995;28;20234;-65
2022/07/16 04:47:48;;;;;;;22.50;20.37;;;19.70;99.90;;;;;;6200945;28;20230;-65
2022/07/16 04:50:51;;;;;;;23.40;21.10;;;19.60;99.90;;;;;;6200666;28;20237;-65
2022/07/16 04:53:54;;;;;;;24.87;22.63;;;19.70;99.90;;;;;;6200839;28;20222;-65
2022/07/16 04:56:58;;;;;;;23.37;21.30;;;19.70;99.90;;;;;;6200915;28;20795;-65
2022/07/16 05:00:03;;;;;;;20.87;19.07;;;19.80;99.90;;;;;;6196006;28;20241;-65
2022/07/16 05:03:07;;;;;;;22.37;20.53;;;19.80;99.90;;;;;;6202884;28;20233;-65
2022/07/16 05:06:10;;;;;;;24.00;21.80;;;19.80;99.90;;;;;;6205840;28;20344;-65
2022/07/16 05:09:13;;;;;;;21.37;19.47;;;19.90;99.90;;;;;;6205715;28;20245;-65
2022/07/16 05:12:16;;;;;;;21.70;19.70;;;19.90;99.90;;;;;;6230315;28;20224;-64
2022/07/16 05:15:21;;;;;;;20.30;18.60;;;19.90;99.90;;;;;;6230249;28;20205;-65
2022/07/16 05:18:24;;;;;;;21.43;19.63;;;20.00;99.90;;;;;;6230183;28;20225;-64
2022/07/16 05:21:27;;;;;;;20.03;18.23;;;20.00;99.90;;;;;;6229543;28;20221;-64
2022/07/16 05:24:31;;;;;;;21.10;19.40;;;20.10;99.90;;;;;;6229749;28;20229;-64
2022/07/16 05:27:34;;;;;;;20.17;18.23;;;20.20;99.90;;;;;;6229556;28;20204;-65
2022/07/16 05:30:39;;;;;;;19.60;18.07;;;20.40;99.90;;;;;;6229840;28;20233;-65
2022/07/16 05:33:42;;;;;;;18.67;16.97;;;20.60;99.90;;;;;;6229970;28;20225;-65
2022/07/16 05:36:45;;;;;;;19.23;17.67;;;20.90;99.90;;;;;;6229995;28;20236;-65
2022/07/16 05:39:48;;;;;;;20.10;18.30;;;21.20;99.90;;;;;;6229532;28;20233;-65
2022/07/16 05:42:51;;;;;;;17.17;15.87;;;21.30;99.90;;;;;;6229508;28;20229;-65
2022/07/16 05:45:56;;;;;;;14.90;13.80;;;21.40;99.90;;;;;;6229125;28;20241;-65
2022/07/16 05:48:59;;;;;;;16.27;14.90;;;21.50;99.90;;;;;;6229295;28;20453;-65
2022/07/16 05:52:03;;;;;;;14.50;13.30;;;21.40;99.90;;;;;;6229260;28;20667;-65
2022/07/16 05:55:07;;;;;;;11.30;10.50;;;21.60;99.90;;;;;;6229275;28;20224;-65
2022/07/16 05:58:10;;;;;;;10.23;9.40;;;21.80;99.90;;;;;;6228841;28;20225;-65
2022/07/16 06:01:14;;;;;;;9.23;8.37;;;22.00;99.90;;;;;;6228864;28;20240;-65
2022/07/16 06:04:17;;;;;;;9.90;8.97;;;22.20;99.90;;;;;;6228691;28;20233;-66
2022/07/16 06:07:21;;;;;;;8.27;7.67;;;22.40;99.90;;;;;;6229075;28;20314;-65
2022/07/16 06:10:24;;;;;;;9.27;8.57;;;22.90;99.90;;;;;;6240629;28;20293;-65
2022/07/16 06:13:27;;;;;;;9.43;8.53;;;23.50;99.90;;;;;;6241207;28;20229;-65
2022/07/16 06:16:32;;;;;;;8.10;7.30;;;23.50;99.90;;;;;;6229198;28;20236;-65
2022/07/16 06:19:35;;;;;;;6.90;6.40;;;23.80;99.90;;;;;;6230449;28;20240;-65
2022/07/16 06:22:38;;;;;;;6.53;6.03;;;24.10;99.90;;;;;;6229317;28;20244;-64
2022/07/16 06:25:47;;;;;;;6.00;5.50;;;24.30;99.90;;;;;;6228721;28;20259;-64
2022/07/16 06:28:50;;;;;;;6.13;5.63;;;24.80;98.60;;;;;;6228469;28;20233;-64
2022/07/16 06:31:54;;;;;;;6.20;5.33;;;24.70;96.40;;;;;;6228705;28;20225;-65
2022/07/16 06:34:58;;;;;;;4.90;4.57;;;24.90;96.60;;;;;;6228289;28;20232;-65
2022/07/16 06:38:03;;;;;;;5.77;5.30;;;25.50;94.90;;;;;;6228527;28;20241;-65
2022/07/16 06:41:06;;;;;;;5.57;5.07;;;26.10;94.30;;;;;;6228068;28;20244;-64
2022/07/16 06:44:09;;;;;;;6.63;5.43;;;26.70;92.50;;;;;;6228261;28;20236;-64
2022/07/16 06:47:14;;;;;;;6.13;5.63;;;27.40;91.30;;;;;;6228570;28;20266;-65
2022/07/16 06:50:17;;;;;;;6.33;5.73;;;28.10;90.30;;;;;;6229259;28;20240;-65
2022/07/16 06:53:20;;;;;;;5.67;5.07;;;28.80;87.30;;;;;;6228321;28;20237;-65
2022/07/16 06:56:23;;;;;;;5.63;5.23;;;28.90;83.00;;;;;;6228158;28;20238;-65
2022/07/16 06:59:27;;;;;;;4.77;4.47;;;29.30;82.70;;;;;;6227815;28;20330;-65
2022/07/16 07:02:32;;;;;;;4.83;4.43;;;29.90;78.20;;;;;;6228253;28;20271;-65
2022/07/16 07:05:35;;;;;;;5.63;5.20;;;30.70;73.30;;;;;;6227645;28;20239;-65
2022/07/16 07:08:38;;;;;;;4.90;4.47;;;31.00;71.30;;;;;;6199662;28;20237;-65
2022/07/16 07:11:47;;;;;;;5.97;5.43;;;31.40;69.20;;;;;;6203483;28;20259;-65
2022/07/16 07:14:50;;;;;;;5.20;4.80;;;31.80;67.00;;;;;;6203611;28;20225;-64
2022/07/16 07:17:55;;;;;;;5.35;4.95;;;32.40;64.10;;;;;;6203200;28;20601;-66
2022/07/16 07:20:59;;;;;;;4.57;4.28;;;32.70;62.10;;;;;;6202944;28;20683;-67
2022/07/16 07:24:03;;;;;;;4.55;4.20;;;31.70;62.80;;;;;;6202592;28;20221;-68
2022/07/16 07:27:25;;;;;;;5.43;4.93;;;32.60;61.90;;;;;;6199570;28;20237;-65
2022/07/16 07:30:29;;;;;;;4.35;4.10;;;33.40;58.40;;;;;;6202400;28;20221;-65
2022/07/16 07:33:34;;;;;;;5.15;4.65;;;33.80;57.70;;;;;;6201741;28;20658;-67
2022/07/16 07:36:37;;;;;;;4.80;4.50;;;33.50;55.50;;;;;;6202446;28;20225;-67
2022/07/16 07:39:40;;;;;;;5.10;4.70;;;33.50;55.00;;;;;;6201399;28;20229;-68
2022/07/16 07:42:44;;;;;;;5.45;5.05;;;33.50;55.80;;;;;;6201951;28;20221;-66
2022/07/16 07:45:47;;;;;;;5.07;4.70;;;34.20;55.00;;;;;;6201661;28;20232;-66
2022/07/16 07:48:51;;;;;;;5.30;4.85;;;34.60;54.80;;;;;;6201352;28;20225;-67
2022/07/16 07:51:55;;;;;;;5.57;5.07;;;33.20;55.90;;;;;;6200230;28;20225;-65
2022/07/16 07:54:58;;;;;;;7.53;4.88;;;32.50;57.90;;;;;;6202167;28;20221;-66
2022/07/16 07:58:01;;;;;;;4.60;4.30;;;32.00;58.60;;;;;;6201848;28;20557;-67
2022/07/16 08:01:04;;;;;;;5.38;5.07;;;31.10;60.70;;;;;;6200596;28;20225;-68
2022/07/16 08:04:28;;;;;;;5.70;5.30;;;30.20;63.70;;;;;;6199819;28;20248;-67
2022/07/16 08:07:32;;;;;;;5.97;5.57;;;30.20;64.90;;;;;;6202111;28;20274;-67
2022/07/16 08:10:35;;;;;;;6.23;5.73;;;29.40;67.60;;;;;;6192715;28;20237;-67
2022/07/16 08:13:38;;;;;;;5.63;5.23;;;29.20;69.40;;;;;;6201775;28;20237;-68
2022/07/16 08:17:01;;;;;;;6.30;5.80;;;28.70;71.10;;;;;;6201675;28;20243;-67
2022/07/16 08:20:08;;;;;;;6.17;5.67;;;29.00;71.60;;;;;;6201855;28;20319;-67
2022/07/16 08:23:11;;;;;;;6.80;6.10;;;29.20;69.30;;;;;;6201515;28;20667;-67
2022/07/16 08:26:13;;;;;;;6.30;5.80;;;29.00;70.60;;;;;;6201467;28;20229;-67
2022/07/16 08:29:16;;;;;;;7.70;7.10;;;28.60;72.50;;;;;;6201142;28;20247;-67
2022/07/16 08:32:19;;;;;;;6.53;6.10;;;28.60;73.10;;;;;;6201269;28;20236;-68
2022/07/16 08:35:24;;;;;;;7.00;6.50;;;28.40;74.10;;;;;;6201136;28;20220;-67
2022/07/16 08:38:27;;;;;;;6.73;6.23;;;28.40;74.30;;;;;;6201025;28;20674;-69
2022/07/16 08:41:32;;;;;;;7.40;6.80;;;28.20;75.10;;;;;;6201235;28;20558;-67
2022/07/16 08:44:39;;;;;;;6.93;6.43;;;28.30;75.00;;;;;;6199675;28;20296;-66
2022/07/16 08:47:47;;;;;;;6.93;6.47;;;28.10;75.50;;;;;;6197807;28;20248;-67
2022/07/16 08:50:54;;;;;;;7.37;6.63;;;28.20;75.90;;;;;;6200476;28;20229;-67
2022/07/16 08:54:00;;;;;;;8.30;7.70;;;27.90;76.40;;;;;;6201035;28;20236;-66
2022/07/16 08:57:03;;;;;;;7.97;7.47;;;28.00;75.90;;;;;;6200757;28;20240;-66
2022/07/16 09:00:10;;;;;;;8.13;7.53;;;28.10;76.20;;;;;;6200645;28;20575;-66
2022/07/16 09:03:14;;;;;;;6.87;6.37;;;28.10;76.30;;;;;;6200553;28;20229;-67
2022/07/16 09:06:20;;;;;;;8.77;8.07;;;27.60;78.30;;;;;;6200977;28;20250;-66
2022/07/16 09:09:24;;;;;;;7.67;6.97;;;27.90;78.60;;;;;;6201489;28;20582;-66
2022/07/16 09:12:35;;;;;;;8.07;7.47;;;27.90;78.40;;;;;;6196854;28;20205;-65
2022/07/16 09:15:40;;;;;;;8.47;7.77;;;27.90;78.60;;;;;;6187245;28;20237;-65
2022/07/16 09:18:44;;;;;;;8.03;7.43;;;28.00;78.30;;;;;;6179308;28;20320;-63
2022/07/16 09:22:07;;;;;;;8.33;7.80;;;28.20;77.80;;;;;;6199550;28;20231;-66
2022/07/16 09:25:11;;;;;;;7.93;7.30;;;28.40;77.00;;;;;;6199230;28;20240;-64
2022/07/16 09:28:14;;;;;;;7.83;7.23;;;28.70;76.80;;;;;;6198798;28;20232;-65
2022/07/16 09:31:34;;;;;;;7.83;7.23;;;28.90;76.10;;;;;;6199268;28;20243;-68
2022/07/16 09:34:37;;;;;;;7.83;7.23;;;29.00;74.70;;;;;;6199247;28;20234;-67
2022/07/16 09:37:51;;;;;;;8.60;8.00;;;28.70;76.20;;;;;;6199066;28;20230;-66
2022/07/16 09:40:54;;;;;;;9.00;8.30;;;28.70;75.90;;;;;;6198917;28;20236;-66
2022/07/16 09:43:57;;;;;;;7.20;6.60;;;28.40;76.90;;;;;;6199117;28;20252;-66
2022/07/16 09:47:04;;;;;;;7.40;6.80;;;28.40;77.30;;;;;;6199066;28;20240;-65
2022/07/16 09:50:08;;;;;;;7.20;6.70;;;28.50;77.60;;;;;;6200775;28;20229;-65
2022/07/16 09:53:17;;;;;;;8.60;7.00;;;28.40;77.10;;;;;;6203106;28;20683;-66
2022/07/16 09:56:22;;;;;;;6.00;5.60;;;28.70;77.80;;;;;;6220066;28;20235;-66
2022/07/16 09:59:25;;;;;;;7.57;6.73;;;28.80;76.90;;;;;;6227290;28;20679;-65
2022/07/16 10:02:51;;;;;;;8.10;7.50;;;29.00;75.80;;;;;;6228135;28;20232;-66
2022/07/16 10:05:55;;;;;;;8.30;7.53;;;29.00;75.50;;;;;;6227224;28;20228;-65
2022/07/16 10:08:59;;;;;;;7.40;6.80;;;29.00;75.50;;;;;;6227561;28;20579;-65
2022/07/16 10:12:06;;;;;;;7.80;7.23;;;29.00;75.70;;;;;;6227316;28;20237;-65
2022/07/16 10:15:10;;;;;;;7.53;6.53;;;28.70;76.10;;;;;;6227223;28;20224;-68
2022/07/16 10:18:34;;;;;;;7.30;6.70;;;28.50;77.20;;;;;;6226597;28;20248;-67
2022/07/16 10:21:37;;;;;;;7.60;7.10;;;28.50;78.30;;;;;;6201959;28;21531;-66
2022/07/16 10:24:47;;;;;;;7.27;6.67;;;28.20;78.80;;;;;;6196966;28;20288;-69
2022/07/16 10:27:51;;;;;;;7.27;6.67;;;27.90;80.30;;;;;;6203045;28;20228;-67
2022/07/16 10:32:27;;;;;;;7.37;6.80;;;27.90;80.90;;;;;;6202640;28;20240;-66
2022/07/16 10:35:28;;;;;;;7.60;7.00;;;28.20;79.40;;;;;;6178246;28;20233;-66
2022/07/16 10:38:31;;;;;;;7.70;7.23;;;28.40;79.70;;;;;;6200853;28;20244;-67
2022/07/16 10:41:48;;;;;;;7.63;7.07;;;28.50;79.10;;;;;;6201921;28;20240;-66
2022/07/16 10:44:51;;;;;;;7.30;6.80;;;27.80;81.60;;;;;;6201675;28;20229;-67
2022/07/16 10:47:57;;;;;;;7.90;7.20;;;27.80;82.10;;;;;;6201164;28;20225;-65
2022/07/16 10:51:11;;;;;;;8.23;7.70;;;28.10;79.90;;;;;;6200315;28;20363;-66
2022/07/16 10:54:23;;;;;;;7.47;6.70;;;28.00;80.70;;;;;;6200181;28;20674;-66
2022/07/16 10:57:36;;;;;;;8.30;7.60;;;27.70;79.80;;;;;;6221885;28;20216;-66
2022/07/16 11:00:39;;;;;;;7.37;6.87;;;27.30;83.30;;;;;;6223508;28;20228;-67
2022/07/16 11:03:43;;;;;;;8.17;7.57;;;27.50;84.80;;;;;;6225818;28;20228;-65
2022/07/16 11:06:50;;;;;;;7.00;6.50;;;27.70;83.60;;;;;;6224741;28;20660;-66
2022/07/16 11:09:55;;;;;;;7.10;6.60;;;28.00;83.10;;;;;;6225241;28;20243;-65
2022/07/16 11:13:00;;;;;;;7.53;6.90;;;28.30;82.50;;;;;;6225026;28;20311;-65
2022/07/16 11:16:09;;;;;;;8.27;7.67;;;28.30;81.80;;;;;;6225429;28;20243;-66
2022/07/16 11:19:12;;;;;;;8.10;7.50;;;28.20;81.70;;;;;;6225249;28;20311;-66
2022/07/16 11:22:17;;;;;;;7.20;6.70;;;28.00;81.90;;;;;;6215398;28;20370;-66
2022/07/16 11:25:20;;;;;;;7.77;7.20;;;28.10;82.30;;;;;;6225272;28;20566;-66
2022/07/16 11:28:25;;;;;;;8.60;8.10;;;28.00;82.20;;;;;;6225039;28;20311;-65
2022/07/16 11:31:31;;;;;;;9.03;7.97;;;28.10;81.80;;;;;;6224568;28;20271;-64
2022/07/16 11:34:35;;;;;;;8.30;7.60;;;28.10;81.90;;;;;;6225044;28;20243;-66
2022/07/16 11:37:49;;;;;;;7.70;7.10;;;28.30;81.90;;;;;;6225057;28;20235;-66
2022/07/16 11:41:01;;;;;;;7.97;7.40;;;28.10;83.00;;;;;;6225729;28;20307;-66
2022/07/16 11:44:14;;;;;;;8.13;7.53;;;28.10;82.40;;;;;;6224958;28;20325;-65
2022/07/16 11:47:17;;;;;;;7.60;7.10;;;28.10;83.10;;;;;;6225000;28;20228;-65
2022/07/16 11:50:27;;;;;;;6.97;6.47;;;28.40;82.20;;;;;;6207704;28;20574;-65
2022/07/16 11:53:32;;;;;;;7.63;7.00;;;28.80;81.00;;;;;;6209925;28;20328;-67
2022/07/16 11:56:37;;;;;;;7.00;6.50;;;28.90;80.80;;;;;;6224506;28;20330;-67
2022/07/16 11:59:47;;;;;;;7.57;7.07;;;29.10;80.00;;;;;;6224408;28;20240;-66
2022/07/16 12:02:57;;;;;;;7.53;6.93;;;29.20;79.70;;;;;;6224645;28;20324;-66
2022/07/16 12:06:02;;;;;;;7.43;6.83;;;29.20;79.10;;;;;;6224521;28;20233;-66
2022/07/16 12:09:05;;;;;;;8.10;6.80;;;29.10;80.00;;;;;;6224251;28;20247;-66
2022/07/16 12:12:13;;;;;;;8.03;7.30;;;28.90;80.40;;;;;;6223740;28;20851;-66
2022/07/16 12:15:18;;;;;;;7.50;7.00;;;29.00;80.20;;;;;;6224319;28;20567;-66
2022/07/16 12:18:23;;;;;;;8.63;7.93;;;29.10;78.70;;;;;;6200404;28;20225;-66
2022/07/16 12:21:27;;;;;;;7.70;7.07;;;28.80;79.30;;;;;;6223746;28;20205;-66
2022/07/16 12:24:30;;;;;;;7.53;6.83;;;28.80;80.50;;;;;;6215240;28;20555;-66
2022/07/16 12:27:45;;;;;;;7.40;6.90;;;28.80;80.70;;;;;;6224047;28;20230;-66
2022/07/16 12:30:54;;;;;;;7.13;6.63;;;28.80;80.20;;;;;;6223681;28;20605;-67
2022/07/16 12:33:59;;;;;;;6.87;6.27;;;28.90;80.20;;;;;;6223139;28;20679;-67
2022/07/16 12:37:14;;;;;;;7.53;7.03;;;29.00;80.30;;;;;;6223869;28;20224;-67
2022/07/16 12:40:18;;;;;;;7.93;7.20;;;29.00;80.30;;;;;;6223250;28;20225;-67
2022/07/16 12:43:21;;;;;;;6.67;6.20;;;28.90;80.00;;;;;;6220262;28;20228;-67
2022/07/16 12:46:28;;;;;;;7.17;6.63;;;29.00;80.30;;;;;;6223769;28;20684;-67
2022/07/16 12:49:32;;;;;;;7.27;6.67;;;29.00;80.30;;;;;;6213620;28;20239;-68
2022/07/16 12:52:35;;;;;;;8.20;7.60;;;29.00;81.30;;;;;;6200141;28;20248;-67
2022/07/16 12:58:59;;;;;;;7.37;6.87;;;29.00;79.50;;;;;;6197224;28;20244;-66
2022/07/16 13:02:06;;;;;;;7.67;7.00;;;28.90;80.10;;;;;;6199812;28;20225;-68
2022/07/16 13:05:09;;;;;;;7.53;7.03;;;28.70;79.80;;;;;;6198438;28;20224;-67
2022/07/16 13:08:13;;;;;;;7.50;6.80;;;28.70;79.90;;;;;;6199312;28;20244;-67
2022/07/16 13:11:19;;;;;;;7.47;6.77;;;28.80;79.50;;;;;;6198919;28;20243;-67
2022/07/16 13:14:22;;;;;;;6.90;6.40;;;29.00;78.90;;;;;;6199238;28;20225;-67
2022/07/16 13:17:26;;;;;;;7.00;6.50;;;29.00;78.70;;;;;;6199308;28;20774;-68
2022/07/16 13:20:30;;;;;;;7.03;6.53;;;29.10;77.60;;;;;;6198544;28;20252;-67
2022/07/16 13:23:33;;;;;;;6.93;6.40;;;29.20;77.10;;;;;;6198491;28;20683;-66
2022/07/16 13:26:38;;;;;;;8.10;7.40;;;29.20;76.70;;;;;;6201572;28;20251;-67
2022/07/16 13:30:01;;;;;;;7.13;6.60;;;28.90;77.50;;;;;;6196434;28;20579;-66
2022/07/16 13:33:05;;;;;;;7.70;7.20;;;28.70;78.20;;;;;;6203487;28;20236;-69
2022/07/16 13:36:10;;;;;;;6.57;6.07;;;28.70;77.50;;;;;;6203596;28;20225;-66
2022/07/16 13:39:13;;;;;;;7.73;7.03;;;28.80;78.50;;;;;;6203431;28;20237;-66
2022/07/16 13:42:16;;;;;;;7.13;6.43;;;28.80;76.00;;;;;;6200096;28;20222;-65
2022/07/16 13:45:20;;;;;;;7.43;6.83;;;28.80;77.20;;;;;;6203239;28;20240;-68
2022/07/16 13:48:24;;;;;;;7.23;6.53;;;28.90;76.10;;;;;;6201527;28;20651;-67
2022/07/16 13:51:28;;;;;;;7.57;6.87;;;28.80;76.20;;;;;;6203090;28;20209;-66
2022/07/16 13:54:48;;;;;;;7.57;6.97;;;28.90;76.50;;;;;;6223191;28;20278;-67
2022/07/16 14:01:14;;;;;;;7.70;7.10;;;28.80;75.60;;;;;;6209149;28;20240;-65
2022/07/16 14:04:18;;;;;;;7.50;7.00;;;28.70;75.20;;;;;;6203096;28;20239;-66
2022/07/16 14:07:22;;;;;;;7.90;7.33;;;28.80;77.30;;;;;;6203246;28;20229;-66
2022/07/16 14:10:25;;;;;;;6.87;6.37;;;28.80;78.00;;;;;;6203057;28;20675;-66
2022/07/16 14:13:28;;;;;;;7.70;7.20;;;28.90;78.30;;;;;;6203012;28;20233;-66
2022/07/16 14:16:32;;;;;;;6.77;6.27;;;28.80;78.80;;;;;;6203137;28;20651;-67
2022/07/16 14:19:37;;;;;;;6.60;6.07;;;28.90;77.50;;;;;;6203303;28;20233;-66
2022/07/16 14:22:40;;;;;;;6.90;6.30;;;28.80;77.90;;;;;;6179621;28;20256;-67
2022/07/16 14:25:44;;;;;;;7.30;6.70;;;28.80;75.70;;;;;;6182329;28;20234;-67
2022/07/16 14:28:48;;;;;;;7.37;6.77;;;28.70;75.20;;;;;;6207299;28;20229;-67
2022/07/16 14:31:57;;;;;;;6.70;6.27;;;28.70;75.90;;;;;;6206175;28;20565;-68
2022/07/16 14:35:02;;;;;;;7.03;6.53;;;28.70;75.60;;;;;;6205535;28;20268;-68
2022/07/16 14:38:05;;;;;;;7.70;6.97;;;28.80;75.10;;;;;;6205757;28;20229;-68
2022/07/16 14:41:08;;;;;;;7.23;6.63;;;28.90;73.50;;;;;;6206425;28;20229;-67
2022/07/16 14:44:11;;;;;;;7.17;6.57;;;28.80;72.80;;;;;;6204385;28;20233;-67
2022/07/16 14:47:15;;;;;;;7.80;7.20;;;28.80;73.00;;;;;;6204369;28;20229;-67
2022/07/16 14:50:20;;;;;;;7.27;6.67;;;28.90;74.00;;;;;;6218111;28;20236;-67
2022/07/16 14:53:24;;;;;;;6.90;6.40;;;29.00;73.80;;;;;;6225813;28;20259;-67
2022/07/16 14:56:27;;;;;;;7.13;6.53;;;28.80;73.80;;;;;;6225862;28;21063;-67
2022/07/16 14:59:30;;;;;;;7.17;6.63;;;28.70;73.40;;;;;;6227158;28;20263;-68
2022/07/16 15:02:33;;;;;;;7.50;6.90;;;28.90;71.70;;;;;;6245413;28;20238;-69
2022/07/16 15:05:38;;;;;;;6.83;6.33;;;28.90;71.40;;;;;;6250351;28;20227;-66
2022/07/16 15:08:43;;;;;;;6.70;6.23;;;28.90;71.60;;;;;;6251832;28;20305;-66
2022/07/16 15:11:46;;;;;;;7.53;6.97;;;29.10;70.70;;;;;;6251880;28;20223;-67
2022/07/16 15:14:50;;;;;;;6.50;5.90;;;29.10;68.80;;;;;;6252797;28;20696;-66
2022/07/16 15:17:53;;;;;;;6.07;5.67;;;29.10;68.00;;;;;;6231907;28;20565;-66
2022/07/16 15:20:58;;;;;;;6.50;6.03;;;29.00;67.00;;;;;;6226706;28;20307;-68
2022/07/16 15:24:01;;;;;;;7.07;6.20;;;29.10;68.30;;;;;;6226720;28;20650;-68
2022/07/16 15:27:04;;;;;;;7.80;5.90;;;29.10;67.50;;;;;;6225970;28;20235;-68
2022/07/16 15:30:10;;;;;;;6.63;6.20;;;29.20;68.20;;;;;;6225509;28;20689;-68
2022/07/16 15:36:44;;;;;;;7.10;6.50;;;29.20;66.50;;;;;;6208880;28;20304;-68
2022/07/16 15:39:48;;;;;;;7.37;6.83;;;29.10;65.60;;;;;;6201495;28;20237;-68
2022/07/16 15:42:51;;;;;;;6.60;6.10;;;29.10;66.40;;;;;;6201757;28;20248;-68
2022/07/16 15:45:54;;;;;;;6.30;5.90;;;29.10;65.30;;;;;;6202467;28;20240;-68
2022/07/16 15:49:00;;;;;;;6.60;6.10;;;29.30;65.20;;;;;;6201276;28;20233;-68
2022/07/16 15:52:05;;;;;;;6.50;6.03;;;29.10;64.90;;;;;;6201939;28;20221;-68
2022/07/16 15:55:09;;;;;;;6.23;5.70;;;29.10;64.50;;;;;;6224639;28;20228;-69
2022/07/16 15:58:12;;;;;;;6.90;6.40;;;29.00;64.70;;;;;;6226417;28;20307;-67
2022/07/16 16:01:15;;;;;;;5.70;5.30;;;28.90;64.60;;;;;;6226202;28;20238;-68
2022/07/16 16:04:19;;;;;;;6.37;5.77;;;28.90;64.90;;;;;;6226255;28;20228;-68